createdAt,value
2022-10-07T00:00:46.873Z,10.50
2022-10-07T00:03:14.457Z,10.40
2022-10-07T00:05:42.152Z,10.30
2022-10-07T00:08:09.201Z,10.20
2022-10-07T00:10:41.255Z,10.20
2022-10-07T00:13:09.927Z,10.20
2022-10-07T00:15:38.613Z,10.10
2022-10-07T00:18:05.869Z,10.10
2022-10-07T00:20:37.892Z,10.10
2022-10-07T00:23:05.037Z,10.10
2022-10-07T00:25:32.564Z,10.00
2022-10-07T00:27:59.668Z,10.00
2022-10-07T00:30:27.103Z,10.00
2022-10-07T00:32:55.546Z,10.00
2022-10-07T00:35:22.758Z,10.10
2022-10-07T00:37:49.568Z,10.10
2022-10-07T00:40:16.851Z,10.10
2022-10-07T00:42:43.637Z,10.10
2022-10-07T00:45:15.225Z,10.10
2022-10-07T00:47:46.286Z,10.10
2022-10-07T00:50:19.416Z,10.10
2022-10-07T00:52:50.604Z,10.10
2022-10-07T00:55:20.893Z,10.00
2022-10-07T00:57:49.632Z,10.00
2022-10-07T01:00:17.745Z,10.00
2022-10-07T01:02:45.165Z,10.00
2022-10-07T01:05:14.460Z,9.90
2022-10-07T01:07:44.467Z,9.90
2022-10-07T01:10:13.964Z,9.80
2022-10-07T01:12:51.534Z,9.70
2022-10-07T01:15:30.186Z,9.70
2022-10-07T01:18:06.555Z,9.80
2022-10-07T01:20:37.703Z,9.80
2022-10-07T01:23:31.962Z,9.70
2022-10-07T01:26:40.634Z,9.70
2022-10-07T01:29:11.402Z,9.60
2022-10-07T01:31:43.689Z,9.70
2022-10-07T01:34:11.717Z,9.60
2022-10-07T01:36:40.091Z,9.70
2022-10-07T01:39:11.289Z,9.70
2022-10-07T01:41:40.470Z,9.60
2022-10-07T01:44:47.401Z,9.60
2022-10-07T01:47:14.636Z,9.50
2022-10-07T01:49:41.528Z,9.40
2022-10-07T01:52:24.301Z,9.50
2022-10-07T01:55:10.151Z,9.40
2022-10-07T01:57:47.959Z,9.40
2022-10-07T02:00:16.393Z,9.40
2022-10-07T02:03:13.233Z,9.40
2022-10-07T02:05:47.692Z,9.40
2022-10-07T02:08:32.591Z,9.40
2022-10-07T02:11:12.083Z,9.40
2022-10-07T02:13:43.660Z,9.40
2022-10-07T02:16:17.383Z,9.50
2022-10-07T02:18:49.326Z,9.50
2022-10-07T02:21:20.813Z,9.50
2022-10-07T02:23:49.996Z,9.50
2022-10-07T02:26:21.183Z,9.50
2022-10-07T02:28:53.409Z,9.60
2022-10-07T02:31:24.380Z,9.50
2022-10-07T02:33:54.329Z,9.50
2022-10-07T02:36:26.165Z,9.40
2022-10-07T02:38:53.877Z,9.40
2022-10-07T02:41:31.629Z,9.30
2022-10-07T02:44:11.046Z,9.20
2022-10-07T02:46:42.669Z,9.30
2022-10-07T02:49:14.709Z,9.30
2022-10-07T02:51:46.926Z,9.30
2022-10-07T02:54:17.225Z,9.20
2022-10-07T02:56:45.658Z,9.10
2022-10-07T02:59:16.240Z,9.10
2022-10-07T03:01:48.665Z,9.00
2022-10-07T03:04:16.561Z,9.00
2022-10-07T03:06:43.465Z,9.00
2022-10-07T03:09:12.330Z,8.90
2022-10-07T03:11:39.701Z,8.90
2022-10-07T03:14:06.906Z,8.90
2022-10-07T03:16:35.187Z,8.90
2022-10-07T03:19:02.514Z,8.90
2022-10-07T03:21:29.819Z,8.90
2022-10-07T03:23:57.560Z,8.80
2022-10-07T03:26:24.467Z,8.90
2022-10-07T03:28:51.825Z,8.80
2022-10-07T03:31:18.949Z,8.80
2022-10-07T03:33:47.680Z,8.80
2022-10-07T03:36:14.572Z,8.80
2022-10-07T03:38:41.896Z,8.80
2022-10-07T03:41:08.821Z,8.90
2022-10-07T03:43:35.973Z,8.80
2022-10-07T03:46:03.187Z,8.80
2022-10-07T03:48:30.669Z,8.80
2022-10-07T03:50:59.545Z,8.80
2022-10-07T03:53:28.550Z,8.90
2022-10-07T03:55:56.234Z,8.80
2022-10-07T03:58:23.634Z,8.90
2022-10-07T04:00:50.978Z,8.90
2022-10-07T04:03:18.727Z,8.90
2022-10-07T04:06:00.862Z,8.80
2022-10-07T04:08:32.386Z,8.70
2022-10-07T04:11:00.201Z,8.70
2022-10-07T04:13:27.739Z,8.70
2022-10-07T04:15:55.866Z,8.80
2022-10-07T04:18:23.402Z,8.80
2022-10-07T04:20:50.593Z,8.70
2022-10-07T04:23:17.417Z,8.70
2022-10-07T04:25:47.275Z,8.70
2022-10-07T04:28:17.284Z,8.60
2022-10-07T04:30:45.027Z,8.60
2022-10-07T04:33:12.326Z,8.60
2022-10-07T04:35:40.809Z,8.60
2022-10-07T04:38:11.938Z,8.50
2022-10-07T04:40:40.428Z,8.50
2022-10-07T04:43:23.006Z,8.40
2022-10-07T04:45:52.700Z,8.40
2022-10-07T04:48:21.515Z,8.40
2022-10-07T04:50:49.748Z,8.40
2022-10-07T04:53:16.952Z,8.40
2022-10-07T04:55:46.858Z,8.40
2022-10-07T04:58:15.994Z,8.30
2022-10-07T05:00:44.349Z,8.40
2022-10-07T05:03:11.978Z,8.30
2022-10-07T05:05:42.597Z,8.30
2022-10-07T05:08:09.512Z,8.30
2022-10-07T05:10:37.789Z,8.30
2022-10-07T05:13:04.958Z,8.30
2022-10-07T05:15:34.184Z,8.30
2022-10-07T05:18:01.160Z,8.30
2022-10-07T05:20:28.511Z,8.30
2022-10-07T05:22:55.406Z,8.30
2022-10-07T05:25:22.555Z,8.20
2022-10-07T05:27:53.997Z,8.30
2022-10-07T05:30:21.472Z,8.40
2022-10-07T05:32:50.402Z,8.40
2022-10-07T05:35:17.692Z,8.40
2022-10-07T05:37:48.817Z,8.30
2022-10-07T05:40:18.010Z,8.30
2022-10-07T05:42:44.877Z,8.30
2022-10-07T05:45:12.440Z,8.30
2022-10-07T05:47:39.387Z,8.30
2022-10-07T05:50:09.297Z,8.30
2022-10-07T05:52:36.161Z,8.40
2022-10-07T05:55:04.190Z,8.30
2022-10-07T05:57:31.019Z,8.40
2022-10-07T05:59:58.969Z,8.40
2022-10-07T06:02:26.151Z,8.50
2022-10-07T06:04:53.363Z,8.60
2022-10-07T06:07:28.391Z,8.60
2022-10-07T06:10:15.253Z,8.70
2022-10-07T06:13:00.468Z,8.60
2022-10-07T06:15:29.466Z,8.60
2022-10-07T06:17:56.687Z,8.70
2022-10-07T06:20:23.583Z,8.70
2022-10-07T06:22:52.991Z,8.90
2022-10-07T06:25:19.848Z,8.90
2022-10-07T06:27:52.798Z,8.90
2022-10-07T06:30:21.071Z,9.00
2022-10-07T06:32:47.958Z,9.00
2022-10-07T06:35:15.283Z,9.10
2022-10-07T06:37:42.248Z,9.20
2022-10-07T06:40:12.188Z,9.20
2022-10-07T06:42:39.028Z,9.30
2022-10-07T06:45:07.525Z,9.30
2022-10-07T06:47:34.551Z,9.40
2022-10-07T06:50:01.316Z,9.40
2022-10-07T06:52:28.125Z,9.50
2022-10-07T06:54:55.777Z,9.50
2022-10-07T06:57:44.941Z,9.60
2022-10-07T07:00:12.240Z,9.70
2022-10-07T07:02:39.544Z,9.80
2022-10-07T07:05:08.801Z,9.80
2022-10-07T07:07:35.659Z,9.90
2022-10-07T07:10:03.816Z,9.90
2022-10-07T07:12:32.589Z,10.00
2022-10-07T07:15:00.859Z,10.10
2022-10-07T07:17:27.777Z,10.20
2022-10-07T07:19:55.787Z,10.30
2022-10-07T07:22:22.601Z,10.30
2022-10-07T07:24:49.862Z,10.40
2022-10-07T07:27:16.676Z,10.50
2022-10-07T07:29:45.307Z,10.50
2022-10-07T07:32:12.178Z,10.70
2022-10-07T07:34:39.413Z,10.80
2022-10-07T07:37:07.066Z,10.90
2022-10-07T07:39:34.158Z,11.00
2022-10-07T07:42:01.075Z,11.10
2022-10-07T07:44:34.048Z,11.20
2022-10-07T07:47:03.422Z,11.30
2022-10-07T07:49:32.655Z,11.30
2022-10-07T07:51:59.923Z,11.20
2022-10-07T07:54:27.676Z,11.30
2022-10-07T07:56:54.770Z,11.30
2022-10-07T07:59:22.367Z,11.40
2022-10-07T08:01:49.225Z,11.30
2022-10-07T08:04:17.632Z,11.40
2022-10-07T08:06:44.463Z,11.50
2022-10-07T08:09:13.121Z,11.60
2022-10-07T08:11:43.622Z,11.60
2022-10-07T08:14:11.835Z,11.60
2022-10-07T08:16:38.765Z,11.70
2022-10-07T08:19:06.534Z,11.70
2022-10-07T08:21:34.801Z,11.70
2022-10-07T08:24:06.325Z,11.80
2022-10-07T08:26:34.749Z,11.90
2022-10-07T08:29:02.061Z,11.90
2022-10-07T08:31:30.209Z,12.00
2022-10-07T08:34:00.039Z,12.10
2022-10-07T08:36:28.481Z,12.20
2022-10-07T08:38:57.611Z,12.30
2022-10-07T08:41:36.292Z,12.30
2022-10-07T08:44:18.189Z,12.40
2022-10-07T08:46:52.435Z,12.50
2022-10-07T08:49:28.163Z,12.50
2022-10-07T08:52:01.253Z,12.60
2022-10-07T08:54:33.362Z,12.60
2022-10-07T08:57:09.483Z,12.80
2022-10-07T08:59:44.272Z,12.90
2022-10-07T09:02:23.013Z,13.00
2022-10-07T09:04:57.131Z,13.10
2022-10-07T09:07:32.269Z,13.20
2022-10-07T09:10:06.953Z,13.30
2022-10-07T09:12:39.539Z,13.40
2022-10-07T09:15:17.086Z,13.50
2022-10-07T09:17:52.457Z,13.70
2022-10-07T09:20:21.289Z,13.80
2022-10-07T09:22:57.646Z,13.80
2022-10-07T09:25:28.118Z,13.90
2022-10-07T09:27:55.600Z,14.00
2022-10-07T09:30:23.468Z,14.10
2022-10-07T09:32:54.553Z,14.00
2022-10-07T09:35:23.488Z,14.20
2022-10-07T09:37:59.383Z,14.30
2022-10-07T09:40:58.788Z,14.30
2022-10-07T09:43:27.974Z,14.40
2022-10-07T09:45:56.453Z,14.50
2022-10-07T09:48:27.698Z,14.60
2022-10-07T09:51:13.023Z,14.60
2022-10-07T09:53:56.088Z,14.70
2022-10-07T09:56:35.932Z,14.70
2022-10-07T09:59:19.547Z,14.80
2022-10-07T10:01:51.833Z,14.70
2022-10-07T10:04:19.920Z,14.80
2022-10-07T10:06:48.781Z,14.90
2022-10-07T10:09:20.849Z,15.00
2022-10-07T10:12:07.364Z,15.10
2022-10-07T10:14:42.680Z,15.30
2022-10-07T10:17:30.841Z,15.50
2022-10-07T10:20:26.437Z,15.80
2022-10-07T10:22:54.062Z,16.20
2022-10-07T10:25:48.910Z,16.70
2022-10-07T10:28:25.557Z,16.80
2022-10-07T10:30:59.780Z,17.30
2022-10-07T10:33:34.645Z,17.60
2022-10-07T10:36:14.689Z,17.70
2022-10-07T10:38:49.778Z,17.50
2022-10-07T10:41:26.511Z,17.60
2022-10-07T10:44:35.205Z,17.60
2022-10-07T10:47:18.040Z,17.40
2022-10-07T10:49:54.236Z,17.60
2022-10-07T10:52:36.605Z,17.40
2022-10-07T10:55:15.919Z,17.20
2022-10-07T10:57:59.994Z,17.30
2022-10-07T11:00:36.571Z,17.50
2022-10-07T11:03:34.766Z,17.40
2022-10-07T11:06:07.769Z,17.30
2022-10-07T11:08:38.556Z,17.30
2022-10-07T11:11:09.167Z,17.10
2022-10-07T11:13:42.053Z,16.80
2022-10-07T11:16:11.868Z,16.60
2022-10-07T11:18:45.737Z,16.60
2022-10-07T11:21:17.187Z,16.80
2022-10-07T11:23:51.897Z,17.00
2022-10-07T11:26:23.663Z,17.30
2022-10-07T11:28:52.217Z,17.20
2022-10-07T11:31:27.449Z,17.30
2022-10-07T11:34:07.684Z,17.50
2022-10-07T11:36:43.740Z,17.60
2022-10-07T11:39:11.387Z,17.30
2022-10-07T11:41:47.589Z,17.50
2022-10-07T11:44:20.389Z,17.80
2022-10-07T11:46:48.587Z,17.60
2022-10-07T11:49:22.244Z,17.40
2022-10-07T11:51:54.563Z,17.60
2022-10-07T11:54:27.573Z,17.60
2022-10-07T11:56:57.389Z,17.70
2022-10-07T11:59:42.351Z,17.90
2022-10-07T12:02:39.013Z,18.20
2022-10-07T12:05:28.898Z,18.30
2022-10-07T12:07:58.598Z,18.30
2022-10-07T12:10:30.551Z,18.30
2022-10-07T12:13:00.852Z,18.20
2022-10-07T12:15:32.022Z,18.40
2022-10-07T12:18:28.735Z,18.50
2022-10-07T12:21:03.776Z,18.50
2022-10-07T12:23:41.185Z,18.40
2022-10-07T12:26:41.478Z,18.50
2022-10-07T12:29:31.055Z,18.40
2022-10-07T12:31:58.848Z,18.70
2022-10-07T12:34:38.614Z,19.20
2022-10-07T12:37:52.042Z,18.80
2022-10-07T12:40:29.753Z,19.00
2022-10-07T12:43:11.123Z,19.10
2022-10-07T12:45:41.020Z,19.20
2022-10-07T12:48:16.905Z,19.70
2022-10-07T12:50:45.663Z,20.20
2022-10-07T12:53:13.404Z,20.00
2022-10-07T12:55:48.194Z,19.60
2022-10-07T12:59:01.247Z,19.20
2022-10-07T13:01:43.181Z,19.10
2022-10-07T13:04:42.903Z,19.40
2022-10-07T13:07:46.526Z,19.70
2022-10-07T13:10:55.259Z,19.50
2022-10-07T13:13:28.469Z,19.90
2022-10-07T13:16:00.177Z,20.30
2022-10-07T13:18:35.967Z,20.30
2022-10-07T13:21:12.420Z,20.10
2022-10-07T13:23:39.865Z,20.20
2022-10-07T13:26:07.384Z,20.30
2022-10-07T13:28:46.479Z,20.80
2022-10-07T13:31:20.454Z,20.80
2022-10-07T13:33:48.639Z,21.00
2022-10-07T13:36:18.466Z,20.80
2022-10-07T13:38:47.598Z,20.70
2022-10-07T13:41:22.711Z,20.70
2022-10-07T13:43:54.761Z,21.10
2022-10-07T13:46:23.792Z,21.30
2022-10-07T13:48:51.772Z,21.70
2022-10-07T13:51:27.657Z,21.80
2022-10-07T13:53:58.460Z,21.60
2022-10-07T13:56:27.990Z,21.10
2022-10-07T13:58:58.576Z,21.20
2022-10-07T14:01:28.389Z,21.30
2022-10-07T14:04:18.443Z,21.30
2022-10-07T14:06:49.912Z,21.30
2022-10-07T14:09:22.340Z,21.20
2022-10-07T14:11:55.316Z,21.30
2022-10-07T14:14:27.337Z,21.30
2022-10-07T14:16:59.888Z,21.30
2022-10-07T14:19:32.910Z,21.90
2022-10-07T14:22:13.736Z,22.20
2022-10-07T14:24:41.703Z,22.10
2022-10-07T14:27:38.067Z,22.20
2022-10-07T14:30:55.516Z,22.00
2022-10-07T14:33:53.307Z,21.80
2022-10-07T14:36:22.324Z,22.10
2022-10-07T14:38:51.162Z,22.00
2022-10-07T14:41:22.224Z,21.90
2022-10-07T14:43:51.733Z,21.90
2022-10-07T14:46:21.995Z,21.90
2022-10-07T14:48:49.568Z,21.60
2022-10-07T14:51:20.603Z,21.70
2022-10-07T14:53:49.839Z,21.90
2022-10-07T14:56:23.676Z,21.90
2022-10-07T14:58:50.507Z,21.80
2022-10-07T15:01:19.086Z,21.60
2022-10-07T15:03:50.018Z,21.20
2022-10-07T15:06:17.950Z,21.00
2022-10-07T15:08:44.995Z,20.80
2022-10-07T15:11:15.719Z,20.60
2022-10-07T15:13:49.211Z,20.10
2022-10-07T15:16:18.648Z,19.90
2022-10-07T15:18:52.076Z,19.60
2022-10-07T15:21:20.451Z,19.20
2022-10-07T15:23:50.927Z,19.00
2022-10-07T15:26:18.823Z,18.80
2022-10-07T15:28:50.293Z,18.50
2022-10-07T15:31:18.028Z,18.40
2022-10-07T15:33:46.278Z,18.30
2022-10-07T15:36:13.935Z,18.20
2022-10-07T15:38:40.820Z,18.20
2022-10-07T15:41:08.439Z,18.00
2022-10-07T15:43:35.645Z,18.00
2022-10-07T15:46:03.098Z,17.90
2022-10-07T15:48:30.071Z,17.90
2022-10-07T15:50:58.730Z,17.80
2022-10-07T15:53:25.821Z,17.80
2022-10-07T15:55:55.224Z,17.70
2022-10-07T15:58:23.615Z,17.70
2022-10-07T16:00:59.003Z,17.60
2022-10-07T16:03:29.062Z,17.50
2022-10-07T16:05:59.915Z,17.50
2022-10-07T16:08:27.312Z,17.40
2022-10-07T16:10:54.548Z,17.40
2022-10-07T16:13:23.150Z,17.50
2022-10-07T16:16:04.582Z,17.30
2022-10-07T16:18:39.364Z,17.20
2022-10-07T16:21:12.100Z,17.20
2022-10-07T16:23:40.555Z,17.20
2022-10-07T16:26:09.296Z,17.00
2022-10-07T16:28:57.866Z,17.20
2022-10-07T16:31:25.246Z,16.90
2022-10-07T16:33:52.572Z,16.90
2022-10-07T16:36:23.708Z,16.90
2022-10-07T16:38:52.078Z,16.80
2022-10-07T16:41:20.770Z,16.80
2022-10-07T16:43:48.754Z,16.70
2022-10-07T16:46:18.596Z,16.60
2022-10-07T16:48:47.127Z,16.50
2022-10-07T16:51:17.782Z,16.50
2022-10-07T16:53:48.827Z,16.40
2022-10-07T16:56:17.508Z,16.30
2022-10-07T16:59:32.722Z,16.30
2022-10-07T17:02:02.775Z,16.30
2022-10-07T17:04:29.997Z,16.30
2022-10-07T17:06:57.346Z,16.30
2022-10-07T17:09:25.253Z,16.20
2022-10-07T17:11:52.972Z,16.10
2022-10-07T17:14:21.451Z,16.10
2022-10-07T17:16:51.820Z,16.10
2022-10-07T17:19:20.478Z,16.00
2022-10-07T17:21:51.777Z,16.00
2022-10-07T17:24:21.760Z,16.00
2022-10-07T17:26:50.349Z,15.90
2022-10-07T17:29:19.950Z,15.90
2022-10-07T17:31:51.919Z,15.90
2022-10-07T17:34:20.588Z,15.80
2022-10-07T17:36:48.592Z,15.70
2022-10-07T17:39:19.510Z,15.70
2022-10-07T17:41:47.576Z,15.70
2022-10-07T17:44:14.535Z,15.60
2022-10-07T17:46:42.321Z,15.60
2022-10-07T17:49:14.828Z,15.50
2022-10-07T17:51:43.536Z,15.50
2022-10-07T17:54:12.272Z,15.40
2022-10-07T17:56:39.921Z,15.40
2022-10-07T17:59:07.017Z,15.40
2022-10-07T18:01:35.434Z,15.30
2022-10-07T18:04:03.822Z,15.30
2022-10-07T18:06:33.973Z,15.20
2022-10-07T18:09:04.564Z,15.20
2022-10-07T18:11:50.925Z,15.10
2022-10-07T18:14:36.817Z,15.10
2022-10-07T18:17:04.565Z,15.00
2022-10-07T18:19:31.540Z,14.90
2022-10-07T18:22:01.025Z,14.90
2022-10-07T18:24:29.264Z,14.90
2022-10-07T18:26:59.450Z,14.90
2022-10-07T18:29:26.662Z,14.90
2022-10-07T18:31:54.011Z,14.80
2022-10-07T18:34:21.021Z,14.80
2022-10-07T18:36:50.641Z,14.80
2022-10-07T18:39:22.193Z,14.70
2022-10-07T18:41:49.737Z,14.70
2022-10-07T18:44:17.150Z,14.70
2022-10-07T18:46:44.421Z,14.60
2022-10-07T18:49:13.977Z,14.60
2022-10-07T18:51:41.528Z,14.40
2022-10-07T18:54:08.908Z,14.30
2022-10-07T18:56:41.115Z,14.30
2022-10-07T18:59:08.863Z,14.20
2022-10-07T19:01:38.005Z,14.20
2022-10-07T19:04:07.238Z,14.20
2022-10-07T19:06:36.895Z,14.20
2022-10-07T19:09:08.944Z,14.20
2022-10-07T19:11:37.665Z,14.20
2022-10-07T19:14:05.009Z,14.10
2022-10-07T19:16:35.206Z,14.10
2022-10-07T19:19:06.474Z,14.00
2022-10-07T19:21:34.743Z,14.00
2022-10-07T19:24:03.202Z,14.00
2022-10-07T19:26:35.642Z,14.00
2022-10-07T19:29:05.535Z,14.00
2022-10-07T19:31:35.676Z,13.90
2022-10-07T19:34:04.894Z,13.90
2022-10-07T19:36:33.741Z,13.80
2022-10-07T19:39:01.296Z,13.80
2022-10-07T19:41:31.086Z,13.80
2022-10-07T19:43:58.745Z,13.80
2022-10-07T19:46:30.467Z,13.80
2022-10-07T19:48:58.866Z,13.80
2022-10-07T19:51:28.897Z,13.80
2022-10-07T19:53:57.406Z,13.80
2022-10-07T19:56:26.355Z,13.70
2022-10-07T19:58:54.613Z,13.70
2022-10-07T20:01:23.712Z,13.70
2022-10-07T20:03:57.329Z,13.70
2022-10-07T20:06:25.739Z,13.70
2022-10-07T20:08:53.490Z,13.60
2022-10-07T20:11:21.256Z,13.60
2022-10-07T20:13:48.381Z,13.50
2022-10-07T20:16:19.224Z,13.40
2022-10-07T20:18:48.115Z,13.40
2022-10-07T20:21:19.462Z,13.40
2022-10-07T20:23:48.174Z,13.30
2022-10-07T20:26:18.151Z,13.30
2022-10-07T20:28:46.391Z,13.30
2022-10-07T20:31:15.550Z,13.20
2022-10-07T20:33:44.333Z,13.10
2022-10-07T20:36:13.835Z,13.10
2022-10-07T20:39:00.687Z,13.00
2022-10-07T20:41:57.910Z,13.00
2022-10-07T20:44:28.017Z,13.00
2022-10-07T20:46:58.148Z,12.90
2022-10-07T20:49:28.464Z,12.90
2022-10-07T20:51:57.366Z,12.90
2022-10-07T20:54:26.931Z,12.90
2022-10-07T20:56:58.028Z,12.90
2022-10-07T20:59:25.337Z,12.90
2022-10-07T21:01:53.536Z,12.90
2022-10-07T21:04:21.481Z,12.90
2022-10-07T21:06:51.947Z,12.90
2022-10-07T21:09:19.620Z,12.80
2022-10-07T21:11:48.722Z,12.90
2022-10-07T21:14:17.274Z,12.90
2022-10-07T21:16:45.418Z,12.90
2022-10-07T21:19:12.573Z,12.90
2022-10-07T21:21:43.335Z,12.90
2022-10-07T21:24:11.584Z,12.90
2022-10-07T21:26:38.956Z,12.90
2022-10-07T21:29:08.166Z,12.90
2022-10-07T21:31:36.391Z,12.80
2022-10-07T21:34:07.871Z,12.80
2022-10-07T21:36:37.075Z,12.80
2022-10-07T21:39:05.250Z,12.90
2022-10-07T21:41:39.039Z,12.80
2022-10-07T21:44:10.951Z,12.80
2022-10-07T21:46:39.213Z,12.70
2022-10-07T21:49:07.690Z,12.70
2022-10-07T21:51:35.268Z,12.70
2022-10-07T21:54:03.082Z,12.60
2022-10-07T21:56:31.967Z,12.50
2022-10-07T21:59:03.335Z,12.50
2022-10-07T22:01:32.567Z,12.40
2022-10-07T22:04:01.216Z,12.40
2022-10-07T22:06:48.828Z,12.40
2022-10-07T22:09:18.349Z,12.30
2022-10-07T22:11:45.609Z,12.30
2022-10-07T22:14:13.209Z,12.30
2022-10-07T22:16:43.048Z,12.30
2022-10-07T22:19:11.001Z,12.20
2022-10-07T22:21:40.476Z,12.20
2022-10-07T22:24:08.787Z,12.20
2022-10-07T22:26:39.332Z,12.10
2022-10-07T22:29:06.482Z,12.10
2022-10-07T22:31:34.017Z,12.10
2022-10-07T22:34:02.610Z,12.10
2022-10-07T22:36:30.229Z,12.00
2022-10-07T22:38:59.066Z,12.00
2022-10-07T22:41:26.984Z,12.00
2022-10-07T22:43:54.368Z,12.00
2022-10-07T22:46:26.602Z,11.90
2022-10-07T22:48:54.413Z,11.90
2022-10-07T22:51:24.851Z,11.90
2022-10-07T22:53:54.439Z,11.90
2022-10-07T22:56:23.362Z,11.90
2022-10-07T22:58:53.053Z,11.90
2022-10-07T23:01:21.870Z,11.90
2022-10-07T23:03:48.876Z,11.90
2022-10-07T23:06:18.315Z,11.90
2022-10-07T23:08:47.857Z,11.80
2022-10-07T23:11:17.079Z,11.80
2022-10-07T23:13:45.651Z,11.90
2022-10-07T23:16:15.899Z,11.90
2022-10-07T23:18:44.768Z,11.90
2022-10-07T23:21:13.933Z,11.90
2022-10-07T23:23:42.630Z,11.90
2022-10-07T23:26:12.892Z,11.90
2022-10-07T23:28:40.254Z,11.90
2022-10-07T23:31:09.099Z,11.90
2022-10-07T23:33:37.381Z,11.90
2022-10-07T23:36:06.923Z,12.00
2022-10-07T23:38:34.213Z,12.00
2022-10-07T23:41:01.850Z,12.10
2022-10-07T23:43:33.454Z,12.00
2022-10-07T23:46:01.422Z,12.00
2022-10-07T23:48:28.751Z,11.90
2022-10-07T23:50:56.544Z,12.00
2022-10-07T23:53:23.547Z,12.10
2022-10-07T23:55:52.708Z,11.80
2022-10-07T23:58:22.015Z,11.80
